Time;durP1;ratioP1;P1;durP2;ratioP2;P2;SDS_P1;SDS_P2;PMS_P1;PMS_P2;Temp;Humidity;BMP_temperature;BMP_pressure;BME280_temperature;BME280_humidity;BME280_pressure;Samples;Min_cycle;Max_cycle;Signal;HPM_P1;HPM_P2
2022/02/18 00:01:29;;;;;;;22.75;15.23;;;;;;;9.99;60.11;99436.66;5071539;28;20059;-72
2022/02/18 00:03:55;;;;;;;24.58;17.35;;;;;;;10.02;59.91;99438.38;5070949;28;20086;-72
2022/02/18 00:06:21;;;;;;;20.52;14.57;;;;;;;9.98;60.23;99449.81;5070798;28;20045;-72
2022/02/18 00:08:46;;;;;;;21.45;14.95;;;;;;;9.93;60.43;99447.25;5056162;28;20032;-72
2022/02/18 00:11:12;;;;;;;23.65;17.08;;;;;;;9.84;60.75;99418.53;5071734;28;20033;-72
2022/02/18 00:13:45;;;;;;;22.17;15.05;;;;;;;9.65;61.39;99410.06;5071689;28;20123;-73
2022/02/18 00:16:11;;;;;;;;;;;;;;;9.65;61.38;99417.91;5069135;28;20055;-72
2022/02/18 00:18:36;;;;;;;25.27;17.92;;;;;;;9.88;60.95;99391.38;5066353;28;20359;-73
2022/02/18 00:21:02;;;;;;;19.52;15.85;;;;;;;9.84;60.83;99394.94;5074238;28;20460;-73
2022/02/18 00:23:28;;;;;;;21.90;16.40;;;;;;;9.82;60.68;99421.16;5053421;28;20032;-73
2022/02/18 00:25:53;;;;;;;23.25;16.55;;;;;;;9.82;60.60;99397.59;5064399;28;20376;-73
2022/02/18 00:28:19;;;;;;;22.83;15.90;;;;;;;9.82;60.80;99415.91;5065897;28;20040;-73
2022/02/18 00:30:44;;;;;;;22.52;14.82;;;;;;;9.82;61.10;99412.44;5069019;28;20045;-73
2022/02/18 00:33:10;;;;;;;18.98;14.13;;;;;;;9.74;60.27;99402.06;5071428;28;20144;-72
2022/02/18 00:35:36;;;;;;;19.42;13.00;;;;;;;9.73;60.18;99390.72;5065756;28;20475;-72
2022/02/18 00:38:02;;;;;;;20.40;13.00;;;;;;;9.90;58.95;99395.75;5077739;28;20089;-73
2022/02/18 00:40:28;;;;;;;20.80;13.55;;;;;;;9.90;58.70;99395.75;5065596;28;20098;-72
2022/02/18 00:42:54;;;;;;;21.45;13.27;;;;;;;9.89;58.80;99374.78;5058856;28;20102;-73
2022/02/18 00:45:20;;;;;;;18.65;12.57;;;;;;;10.01;58.31;99387.72;5065811;28;20077;-73
2022/02/18 00:47:47;;;;;;;19.95;13.60;;;;;;;9.81;58.28;99363.53;5055517;28;20051;-73
2022/02/18 00:50:12;;;;;;;21.45;12.57;;;;;;;9.66;58.83;99368.09;5069168;28;20029;-72
2022/02/18 00:52:38;;;;;;;19.95;13.32;;;;;;;9.88;58.32;99379.16;5068557;28;20113;-72
2022/02/18 00:55:04;;;;;;;21.88;12.80;;;;;;;9.76;58.14;99386.31;5068990;28;20020;-73
2022/02/18 00:57:29;;;;;;;29.13;12.40;;;;;;;9.76;58.46;99405.50;5057690;28;20072;-72
2022/02/18 00:59:55;;;;;;;23.42;13.18;;;;;;;9.91;58.14;99407.94;5068030;28;20444;-72
2022/02/18 01:02:20;;;;;;;15.38;11.70;;;;;;;9.78;58.93;99413.38;5070576;28;20036;-72
2022/02/18 01:04:46;;;;;;;20.85;12.75;;;;;;;9.74;59.13;99394.22;5064673;28;20110;-73
2022/02/18 01:07:11;;;;;;;15.80;10.68;;;;;;;9.90;58.50;99410.56;5063681;28;20082;-72
2022/02/18 01:09:37;;;;;;;15.73;11.20;;;;;;;9.66;59.23;99412.63;5055216;28;20045;-72
2022/02/18 01:12:03;;;;;;;15.95;10.20;;;;;;;9.90;58.34;99413.19;5067357;28;20032;-72
2022/02/18 01:14:28;;;;;;;14.07;11.32;;;;;;;9.96;58.44;99397.41;5070215;28;20034;-72
2022/02/18 01:16:54;;;;;;;19.10;9.98;;;;;;;9.77;58.81;99377.59;5069315;28;20033;-72
2022/02/18 01:19:19;;;;;;;16.58;10.25;;;;;;;9.85;58.88;99380.94;5070284;28;20047;-72
2022/02/18 01:21:45;;;;;;;17.90;10.00;;;;;;;9.99;58.58;99378.16;5071265;28;20388;-72
2022/02/18 01:24:12;;;;;;;13.88;9.95;;;;;;;10.02;58.44;99381.59;5066795;28;20077;-72
2022/02/18 01:26:39;;;;;;;21.83;11.55;;;;;;;10.02;58.65;99384.22;5069143;28;20496;-72
2022/02/18 01:29:04;;;;;;;16.95;10.68;;;;;;;9.96;58.97;99383.44;5052059;28;20043;-72
2022/02/18 01:31:30;;;;;;;14.73;10.55;;;;;;;10.15;58.46;99426.84;5066666;28;20048;-72
2022/02/18 01:33:57;;;;;;;16.95;10.30;;;;;;;10.01;59.27;99418.31;5062273;28;20048;-73
2022/02/18 01:36:24;;;;;;;19.45;9.77;;;;;;;10.08;58.90;99412.94;5074729;28;20044;-73
2022/02/18 01:38:50;;;;;;;12.85;9.57;;;;;;;9.93;59.25;99423.66;5056662;28;20473;-72
2022/02/18 01:41:36;;;;;;;13.55;9.75;;;;;;;9.95;59.05;99429.75;5069687;28;20052;-72
2022/02/18 01:44:06;;;;;;;19.48;10.32;;;;;;;9.86;59.07;99435.09;5069812;28;20126;-73
2022/02/18 01:47:12;;;;;;;15.63;7.85;;;;;;;9.97;58.46;99451.53;5068104;28;20048;-73
2022/02/18 01:49:37;;;;;;;13.65;7.30;;;;;;;9.88;58.64;99456.88;5060122;28;20050;-73
2022/02/18 01:52:03;;;;;;;14.95;8.95;;;;;;;10.03;58.13;99458.47;5058118;28;20033;-73
2022/02/18 01:54:28;;;;;;;12.23;6.55;;;;;;;9.93;57.98;99448.09;5065462;28;20502;-73
2022/02/18 01:56:54;;;;;;;27.67;7.35;;;;;;;9.98;57.64;99448.03;5065802;28;20113;-72
2022/02/18 01:59:20;;;;;;;10.70;5.82;;;;;;;9.96;57.39;99448.94;5065290;28;20111;-73
2022/02/18 02:01:45;;;;;;;14.85;6.82;;;;;;;9.86;57.23;99438.59;5064455;28;20048;-73
2022/02/18 02:04:11;;;;;;;14.77;5.60;;;;;;;9.91;57.17;99449.00;5068564;28;20040;-73
2022/02/18 02:06:38;;;;;;;9.25;5.60;;;;;;;9.93;56.96;99442.00;5063934;28;20066;-73
2022/02/18 02:09:04;;;;;;;9.85;6.18;;;;;;;9.88;56.81;99426.34;5057993;28;20067;-73
2022/02/18 02:11:29;;;;;;;8.75;6.22;;;;;;;9.88;56.44;99442.06;5064962;28;20059;-73
2022/02/18 02:13:55;;;;;;;9.57;4.75;;;;;;;9.85;56.25;99430.72;5062627;28;20055;-73
2022/02/18 02:16:21;;;;;;;10.77;5.68;;;;;;;9.89;56.04;99445.53;5059669;28;20056;-73
2022/02/18 02:18:46;;;;;;;7.35;3.63;;;;;;;9.83;56.07;99446.50;5069529;28;20097;-73
2022/02/18 02:21:13;;;;;;;8.18;4.15;;;;;;;9.82;55.78;99463.09;5066954;28;20544;-73
2022/02/18 02:23:39;;;;;;;6.85;3.08;;;;;;;9.90;55.20;99470.84;5067800;28;20028;-73
2022/02/18 02:26:12;;;;;;;7.93;4.20;;;;;;;9.96;54.97;99481.25;5067868;28;20041;-73
2022/02/18 02:28:37;;;;;;;8.25;3.55;;;;;;;9.86;54.81;99487.50;5066349;28;20544;-73
2022/02/18 02:31:03;;;;;;;8.07;3.58;;;;;;;9.83;54.53;99484.91;5061631;28;20061;-73
2022/02/18 02:33:28;;;;;;;20.23;3.45;;;;;;;9.79;54.23;99489.31;5067894;28;20388;-72
2022/02/18 02:35:54;;;;;;;4.93;2.45;;;;;;;10.01;53.94;99494.31;5049895;28;20043;-72
2022/02/18 02:38:20;;;;;;;6.85;2.58;;;;;;;9.99;53.35;99496.06;5063408;28;20487;-72
2022/02/18 02:40:45;;;;;;;4.60;2.55;;;;;;;9.83;53.07;99482.28;5066983;28;20503;-72
2022/02/18 02:43:11;;;;;;;8.85;1.63;;;;;;;9.82;52.75;99499.75;5069296;28;20135;-71
2022/02/18 02:45:36;;;;;;;16.70;2.10;;;;;;;9.75;51.79;99492.88;5081590;28;20040;-74
2022/02/18 02:48:02;;;;;;;4.00;1.80;;;;;;;9.92;51.12;99496.13;5063218;28;20033;-72
2022/02/18 02:50:27;;;;;;;11.85;1.60;;;;;;;9.79;50.75;99485.84;5065123;28;20035;-73
2022/02/18 02:52:53;;;;;;;5.45;1.77;;;;;;;9.91;50.08;99490.94;5069662;28;20028;-73
2022/02/18 02:55:19;;;;;;;2.92;1.20;;;;;;;9.88;49.56;99502.31;5062029;28;20040;-73
2022/02/18 02:57:45;;;;;;;3.30;1.08;;;;;;;9.82;49.17;99478.81;5052693;28;20127;-73
2022/02/18 03:00:13;;;;;;;4.60;0.73;;;;;;;9.90;48.60;99484.84;5057055;28;20059;-73
2022/02/18 03:02:39;;;;;;;7.95;1.35;;;;;;;9.89;49.03;99493.56;5061916;28;20477;-73
2022/02/18 03:05:05;;;;;;;4.53;0.77;;;;;;;9.73;48.73;99489.38;5068835;28;20044;-73
2022/02/18 03:07:31;;;;;;;6.75;1.00;;;;;;;9.89;48.03;99490.94;5067331;28;20044;-72
2022/02/18 03:09:56;;;;;;;6.25;1.00;;;;;;;9.89;47.83;99500.56;5068490;28;20064;-73
2022/02/18 03:12:22;;;;;;;3.03;0.68;;;;;;;9.86;47.40;99495.38;5067383;28;20095;-72
2022/02/18 03:14:47;;;;;;;11.68;1.25;;;;;;;9.85;47.12;99499.72;5069070;28;20456;-73
2022/02/18 03:17:13;;;;;;;4.15;0.82;;;;;;;9.72;46.95;99485.91;5067813;28;20044;-73
2022/02/18 03:19:39;;;;;;;12.00;1.00;;;;;;;9.80;47.22;99498.06;5053704;28;20090;-73
2022/02/18 03:22:06;;;;;;;6.95;1.15;;;;;;;9.83;46.63;99514.63;5049872;28;20049;-73
2022/02/18 03:24:32;;;;;;;8.60;1.45;;;;;;;9.82;46.02;99498.91;5060602;28;20059;-73
2022/02/18 03:26:58;;;;;;;20.10;1.25;;;;;;;9.73;46.04;99520.81;5068551;28;20051;-73
2022/02/18 03:29:23;;;;;;;3.40;0.90;;;;;;;9.86;45.23;99550.41;5073018;28;20523;-73
2022/02/18 03:31:48;;;;;;;7.80;1.77;;;;;;;9.75;45.06;99526.91;5064417;28;20473;-73
2022/02/18 03:34:15;;;;;;;16.10;2.13;;;;;;;9.72;44.92;99546.16;5067922;28;20095;-73
2022/02/18 03:36:40;;;;;;;11.52;1.45;;;;;;;9.73;44.89;99568.84;5054179;28;20037;-73
2022/02/18 03:39:06;;;;;;;7.30;1.00;;;;;;;9.79;45.03;99562.69;5064195;28;20028;-73
2022/02/18 03:41:32;;;;;;;12.38;1.40;;;;;;;9.78;45.09;99576.66;5072908;28;20033;-73
2022/02/18 03:43:58;;;;;;;7.60;1.35;;;;;;;9.59;46.09;99585.59;5070982;28;20043;-73
2022/02/18 03:46:23;;;;;;;2.83;0.85;;;;;;;9.59;46.04;99589.06;5060735;28;20041;-72
2022/02/18 03:48:49;;;;;;;6.65;0.95;;;;;;;9.52;46.81;99588.25;5070517;28;20062;-72
2022/02/18 03:51:14;;;;;;;9.68;0.82;;;;;;;9.32;47.96;99597.16;5064544;28;20414;-73
2022/02/18 03:53:40;;;;;;;8.60;1.45;;;;;;;9.56;48.13;99612.69;5054935;28;20044;-73
2022/02/18 03:56:06;;;;;;;5.38;1.38;;;;;;;9.24;50.28;99612.94;5059216;28;20036;-73
2022/02/18 03:58:32;;;;;;;3.78;1.90;;;;;;;9.19;51.64;99635.66;5057734;28;20036;-73
2022/02/18 04:00:57;;;;;;;3.22;1.42;;;;;;;9.12;52.35;99636.59;5071227;28;20499;-73
2022/02/18 04:03:23;;;;;;;3.42;1.63;;;;;;;9.25;52.98;99649.59;5065254;28;20045;-73
2022/02/18 04:05:48;;;;;;;4.90;1.70;;;;;;;9.22;53.44;99649.56;5055253;28;20023;-73
2022/02/18 04:08:14;;;;;;;2.85;1.20;;;;;;;9.13;53.68;99656.63;5063349;28;20111;-73
2022/02/18 04:10:39;;;;;;;5.70;2.08;;;;;;;9.16;53.88;99656.63;5057947;28;20036;-73
2022/02/18 04:13:05;;;;;;;3.38;1.83;;;;;;;9.14;53.83;99659.25;5051660;28;20060;-73
2022/02/18 04:15:30;;;;;;;4.95;1.75;;;;;;;9.04;54.22;99666.28;5070084;28;20417;-73
2022/02/18 04:17:56;;;;;;;3.88;1.67;;;;;;;8.76;54.69;99660.34;5071031;28;20430;-72
2022/02/18 04:20:22;;;;;;;3.70;2.00;;;;;;;8.72;54.97;99657.75;5073209;28;20032;-73
2022/02/18 04:22:47;;;;;;;4.00;1.63;;;;;;;8.67;55.21;99660.38;5072436;28;20090;-73
2022/02/18 04:25:13;;;;;;;4.88;2.45;;;;;;;8.71;55.53;99679.53;5070430;28;20052;-73
2022/02/18 04:27:39;;;;;;;3.28;1.65;;;;;;;8.68;55.38;99682.16;5057944;28;20056;-73
2022/02/18 04:30:06;;;;;;;4.20;2.10;;;;;;;8.66;55.40;99690.00;5070383;28;20029;-73
2022/02/18 04:32:31;;;;;;;5.45;2.22;;;;;;;8.43;55.68;99679.66;5069793;28;20036;-73
2022/02/18 04:34:58;;;;;;;7.90;1.98;;;;;;;8.40;55.51;99677.03;5053922;28;20397;-73
2022/02/18 04:37:23;;;;;;;5.97;2.28;;;;;;;8.37;55.85;99677.00;5070122;28;20047;-73
2022/02/18 04:39:49;;;;;;;2.95;1.67;;;;;;;8.42;55.31;99685.72;5070950;28;20041;-72
2022/02/18 04:42:15;;;;;;;4.93;1.65;;;;;;;8.45;55.23;99693.56;5067991;28;20058;-73
2022/02/18 04:44:40;;;;;;;6.43;2.42;;;;;;;8.48;55.14;99698.81;5070379;28;20486;-73
2022/02/18 04:47:06;;;;;;;4.80;2.63;;;;;;;8.38;55.43;99704.88;5071422;28;20047;-73
2022/02/18 04:49:32;;;;;;;4.47;1.80;;;;;;;8.26;55.53;99697.94;5058883;28;20072;-73
2022/02/18 04:51:57;;;;;;;6.30;2.42;;;;;;;8.27;55.62;99710.16;5052436;28;20503;-73
2022/02/18 04:54:23;;;;;;;7.90;2.92;;;;;;;8.33;55.62;99707.50;5059369;28;20480;-73
2022/02/18 04:56:49;;;;;;;5.32;2.80;;;;;;;8.18;55.70;99702.31;5066579;28;20036;-72
2022/02/18 04:59:16;;;;;;;4.88;2.70;;;;;;;8.17;55.74;99705.78;5069132;28;20060;-73
2022/02/18 05:01:43;;;;;;;5.03;2.03;;;;;;;8.19;55.92;99727.56;5057081;28;20033;-73
2022/02/18 05:04:08;;;;;;;7.22;3.05;;;;;;;8.04;56.07;99739.78;5066450;28;20036;-73
2022/02/18 05:06:34;;;;;;;9.63;3.35;;;;;;;8.10;55.89;99743.25;5063351;28;20366;-72
2022/02/18 05:08:59;;;;;;;4.68;2.22;;;;;;;8.22;55.42;99741.50;5062577;28;20116;-72
2022/02/18 05:11:25;;;;;;;10.25;4.50;;;;;;;8.10;55.34;99741.53;5072166;28;20017;-72
2022/02/18 05:13:50;;;;;;;7.97;4.07;;;;;;;8.24;55.25;99768.53;5069592;28;20530;-73
2022/02/18 05:16:16;;;;;;;9.40;3.95;;;;;;;8.12;55.33;99767.66;5069595;28;20392;-72
2022/02/18 05:18:41;;;;;;;5.43;2.53;;;;;;;8.21;55.14;99789.41;5070675;28;20052;-73
2022/02/18 05:21:07;;;;;;;7.53;3.83;;;;;;;8.21;54.74;99783.31;5069532;28;20479;-73
2022/02/18 05:23:33;;;;;;;7.43;3.95;;;;;;;8.05;55.11;99782.44;5059215;28;20461;-73
2022/02/18 05:26:41;;;;;;;10.63;2.83;;;;;;;8.03;55.17;99798.16;5069825;28;20140;-73
2022/02/18 05:29:07;;;;;;;12.20;3.00;;;;;;;8.08;54.82;99805.09;5054117;28;20040;-73
2022/02/18 05:31:32;;;;;;;6.28;2.80;;;;;;;7.90;55.17;99805.97;5069260;28;20472;-73
2022/02/18 05:33:58;;;;;;;5.95;2.88;;;;;;;8.01;54.29;99817.31;5070319;28;20456;-75
2022/02/18 05:36:57;;;;;;;4.95;2.17;;;;;;;7.98;54.54;99838.19;5068804;28;20033;-72
2022/02/18 05:39:23;;;;;;;9.07;2.63;;;;;;;8.06;53.91;99846.06;5060821;28;20051;-73
2022/02/18 05:41:50;;;;;;;8.77;3.00;;;;;;;8.09;53.72;99853.88;5069424;28;20867;-73
2022/02/18 05:44:16;;;;;;;11.35;3.05;;;;;;;7.93;53.82;99859.06;5070510;28;20036;-74
2022/02/18 05:46:41;;;;;;;9.07;2.38;;;;;;;8.06;53.30;99862.59;5068082;28;20044;-74
2022/02/18 05:49:07;;;;;;;6.68;2.78;;;;;;;8.14;52.86;99893.94;5065895;28;20388;-74
2022/02/18 05:51:33;;;;;;;4.53;1.95;;;;;;;8.09;53.04;99890.47;5068408;28;20404;-74
2022/02/18 05:53:59;;;;;;;5.43;2.25;;;;;;;8.06;52.54;99907.00;5060485;28;20043;-73
2022/02/18 05:56:24;;;;;;;13.27;2.53;;;;;;;8.13;52.25;99894.84;5061587;28;20522;-74
2022/02/18 05:58:50;;;;;;;9.80;1.90;;;;;;;8.16;51.72;99906.16;5052316;28;20036;-74
2022/02/18 06:01:16;;;;;;;4.65;2.25;;;;;;;8.17;51.64;99907.91;5069055;28;20475;-74
2022/02/18 06:03:41;;;;;;;6.65;2.63;;;;;;;8.17;51.67;99918.34;5067357;28;20101;-73
2022/02/18 06:06:07;;;;;;;11.52;3.17;;;;;;;7.88;51.83;99927.84;5056111;28;20044;-73
2022/02/18 06:08:32;;;;;;;6.75;2.83;;;;;;;8.05;51.76;99923.53;5055766;28;20462;-73
2022/02/18 06:10:58;;;;;;;4.32;2.30;;;;;;;8.13;51.74;99929.66;5067662;28;20041;-73
2022/02/18 06:13:23;;;;;;;4.65;2.25;;;;;;;8.15;51.46;99934.91;5067809;28;20037;-73
2022/02/18 06:15:49;;;;;;;7.32;2.83;;;;;;;8.12;51.65;99938.34;5069952;28;20041;-73
2022/02/18 06:18:14;;;;;;;4.15;2.25;;;;;;;8.22;50.80;99942.75;5067990;28;20458;-73
2022/02/18 06:20:40;;;;;;;3.53;1.50;;;;;;;8.25;50.66;99955.81;5058170;28;20353;-72
2022/02/18 06:23:05;;;;;;;5.32;1.48;;;;;;;8.31;50.54;99964.53;5069105;28;20094;-72
2022/02/18 06:25:31;;;;;;;4.15;1.90;;;;;;;8.41;50.32;99975.06;5066742;28;20135;-74
2022/02/18 06:28:10;;;;;;;6.13;1.85;;;;;;;8.33;50.71;99971.50;5063408;28;20468;-72
2022/02/18 06:30:37;;;;;;;4.45;1.48;;;;;;;8.38;50.64;99958.44;5069398;28;20190;-74
2022/02/18 06:33:07;;;;;;;3.47;1.60;;;;;;;8.44;50.39;99971.56;5054309;28;20093;-72
2022/02/18 06:35:37;;;;;;;6.03;2.35;;;;;;;8.31;51.26;99988.97;5049270;28;20116;-74
2022/02/18 06:38:03;;;;;;;7.60;1.30;;;;;;;8.28;51.95;99986.31;5054237;28;20071;-71
2022/02/18 06:40:29;;;;;;;3.17;1.05;;;;;;;8.34;52.41;99998.53;5057367;28;20072;-73
2022/02/18 06:42:54;;;;;;;3.58;1.00;;;;;;;8.53;52.10;99994.25;5067178;28;20815;-74
2022/02/18 06:45:19;;;;;;;3.25;1.15;;;;;;;8.61;52.29;99995.13;5067122;28;20060;-73
2022/02/18 06:47:46;;;;;;;3.85;1.17;;;;;;;8.51;52.74;100004.69;5058280;28;20028;-73
2022/02/18 06:50:13;;;;;;;2.90;1.48;;;;;;;8.55;53.16;100009.06;5067288;28;20424;-78
2022/02/18 06:56:00;;;;;;;4.20;1.63;;;;;;;8.54;53.75;100019.53;5063225;28;20563;-73
2022/02/18 06:58:26;;;;;;;5.78;1.52;;;;;;;8.58;53.78;100008.22;5048864;28;20055;-74
2022/02/18 07:00:57;;;;;;;6.25;2.80;;;;;;;8.57;53.92;100001.22;5061067;28;20034;-75
2022/02/18 07:03:47;;;;;;;5.30;1.52;;;;;;;8.69;52.90;100023.94;5058995;28;20044;-75
2022/02/18 07:06:12;;;;;;;2.65;1.40;;;;;;;8.64;53.04;100016.06;5061623;28;20044;-74
2022/02/18 07:08:37;;;;;;;2.47;1.52;;;;;;;8.68;52.31;100020.41;5072364;28;20142;-76
2022/02/18 07:11:03;;;;;;;2.33;1.13;;;;;;;8.43;52.73;100035.22;5068686;28;20044;-75
2022/02/18 07:13:28;;;;;;;3.10;1.55;;;;;;;8.51;52.74;100033.47;5061325;28;20064;-75
2022/02/18 07:15:55;;;;;;;2.58;1.48;;;;;;;8.86;52.18;100040.50;5058167;28;20140;-77
2022/02/18 07:18:21;;;;;;;7.60;1.95;;;;;;;8.98;51.92;100037.00;5072769;28;20067;-75
2022/02/18 07:20:47;;;;;;;4.90;1.42;;;;;;;8.94;52.04;100051.81;5070219;28;20025;-70
2022/02/18 07:23:13;;;;;;;8.80;2.20;;;;;;;9.01;51.49;100042.25;5072675;28;20091;-71
2022/02/18 07:25:38;;;;;;;7.72;2.95;;;;;;;9.14;51.02;100043.13;5062797;28;20053;-71
2022/02/18 07:28:04;;;;;;;8.43;3.15;;;;;;;8.87;49.94;100031.75;5060778;28;20036;-70
2022/02/18 07:30:31;;;;;;;5.25;2.00;;;;;;;8.77;49.71;100045.72;5067740;28;20051;-69
2022/02/18 07:32:56;;;;;;;3.65;1.90;;;;;;;9.00;48.98;100053.59;5066931;28;20491;-68
2022/02/18 07:35:23;;;;;;;7.35;2.30;;;;;;;9.22;48.86;100050.09;5068961;28;20029;-74
2022/02/18 07:37:49;;;;;;;6.25;2.17;;;;;;;9.12;48.95;100053.59;5062384;28;20195;-74
2022/02/18 07:40:16;;;;;;;5.32;1.77;;;;;;;9.24;48.64;100052.72;5056495;28;20441;-73
2022/02/18 07:42:43;;;;;;;3.08;1.70;;;;;;;9.21;48.44;100052.72;5070078;28;20083;-73
2022/02/18 07:45:28;;;;;;;5.35;2.53;;;;;;;9.38;48.50;100069.28;5059854;28;20036;-74
2022/02/18 07:48:20;;;;;;;2.22;1.17;;;;;;;9.42;48.66;100071.03;5048736;28;20029;-72
2022/02/18 07:50:45;;;;;;;4.00;1.50;;;;;;;9.49;48.76;100080.63;5058705;28;20028;-72
2022/02/18 07:53:11;;;;;;;3.53;1.45;;;;;;;9.58;48.61;100077.13;5068198;28;20082;-73
2022/02/18 07:55:36;;;;;;;3.72;1.63;;;;;;;9.70;48.40;100089.34;5063181;28;20111;-73
2022/02/18 07:58:02;;;;;;;3.75;1.42;;;;;;;9.52;48.93;100085.84;5062527;28;20036;-73
2022/02/18 08:00:28;;;;;;;3.58;1.58;;;;;;;9.60;49.23;100096.34;5065677;28;20052;-73
2022/02/18 08:02:53;;;;;;;3.15;1.45;;;;;;;9.57;49.17;100090.22;5067555;28;20048;-72
2022/02/18 08:05:19;;;;;;;6.35;2.85;;;;;;;9.83;49.20;100100.66;5061189;28;20037;-73
2022/02/18 08:07:44;;;;;;;9.18;1.52;;;;;;;9.72;49.25;100084.97;5068198;28;20040;-72
2022/02/18 08:10:11;;;;;;;1.52;0.85;;;;;;;9.94;48.48;100097.13;5066501;28;20040;-72
2022/02/18 08:12:36;;;;;;;6.15;0.85;;;;;;;10.02;47.50;100107.63;5067864;28;20464;-72
2022/02/18 08:18:20;;;;;;;2.03;0.75;;;;;;;9.95;47.07;100111.13;5063054;28;20044;-72
2022/02/18 08:20:46;;;;;;;4.40;0.82;;;;;;;10.04;46.23;100115.47;5062820;28;20051;-73
2022/02/18 08:23:12;;;;;;;19.80;2.83;;;;;;;9.82;46.53;100112.91;5063301;28;20048;-73
2022/02/18 08:25:52;;;;;;;4.97;0.88;;;;;;;10.05;45.71;100128.56;5073927;28;20044;-74
2022/02/18 08:28:20;;;;;;;1.08;0.55;;;;;;;10.03;44.76;100129.47;5052902;28;20068;-73
2022/02/18 08:30:47;;;;;;;3.40;0.80;;;;;;;9.86;44.41;100134.75;5066894;28;20472;-73
2022/02/18 08:33:12;;;;;;;2.60;0.52;;;;;;;10.09;44.58;100129.41;5061562;28;20048;-73
2022/02/18 08:35:39;;;;;;;4.68;1.48;;;;;;;10.28;44.33;100138.13;5070180;28;20040;-74
2022/02/18 08:38:05;;;;;;;2.45;0.60;;;;;;;10.00;44.72;100139.97;5064573;28;20037;-73
2022/02/18 08:40:31;;;;;;;3.63;0.63;;;;;;;10.10;44.55;100137.28;5064741;28;20124;-74
2022/02/18 08:42:57;;;;;;;1.73;0.68;;;;;;;10.19;44.20;100136.41;5069232;28;20048;-74
2022/02/18 08:45:23;;;;;;;3.78;0.82;;;;;;;10.06;44.26;100135.53;5073315;28;20153;-74
2022/02/18 08:47:49;;;;;;;2.60;0.80;;;;;;;10.24;44.10;100129.38;5068837;28;20387;-73
2022/02/18 08:50:14;;;;;;;12.02;1.77;;;;;;;10.24;44.02;100121.53;5065391;28;20040;-73
2022/02/18 08:52:42;;;;;;;2.25;0.80;;;;;;;10.34;43.88;100123.25;5058862;28;20077;-78
2022/02/18 08:55:11;;;;;;;2.50;0.90;;;;;;;10.49;43.37;100137.22;5057951;28;20087;-78
2022/02/18 08:57:37;;;;;;;6.95;1.17;;;;;;;10.44;43.44;100139.84;5063138;28;20049;-78
2022/02/18 09:00:05;;;;;;;2.30;0.80;;;;;;;10.52;43.29;100151.19;5059625;28;20025;-78
2022/02/18 09:02:31;;;;;;;4.22;0.95;;;;;;;10.50;42.68;100134.56;5067197;28;20064;-78
2022/02/18 09:04:57;;;;;;;6.10;1.42;;;;;;;10.56;42.35;100155.53;5070012;28;20213;-77
2022/02/18 09:07:24;;;;;;;3.28;1.25;;;;;;;10.70;42.20;100165.97;5064481;28;20143;-77
2022/02/18 09:09:49;;;;;;;4.43;0.90;;;;;;;10.55;41.95;100159.03;5056155;28;20533;-77
2022/02/18 09:12:37;;;;;;;10.98;1.10;;;;;;;10.82;42.33;100159.78;5071176;28;20044;-78
2022/02/18 09:15:06;;;;;;;9.20;1.80;;;;;;;10.87;41.90;100170.28;5058166;28;20024;-78
2022/02/18 09:17:32;;;;;;;1.88;0.85;;;;;;;10.98;40.14;100161.47;5069122;28;20028;-74
2022/02/18 09:19:59;;;;;;;2.40;0.90;;;;;;;10.89;35.76;100174.63;5069664;28;20488;-74
2022/02/18 09:22:25;;;;;;;10.98;1.23;;;;;;;10.82;35.00;100182.56;5068727;28;20130;-74
2022/02/18 09:24:54;;;;;;;3.55;0.80;;;;;;;10.93;34.09;100165.88;5061310;28;20036;-74
2022/02/18 09:30:44;;;;;;;2.70;1.40;;;;;;;10.85;34.80;100166.78;5064952;28;20073;-74
2022/02/18 09:33:12;;;;;;;4.63;1.25;;;;;;;11.25;34.81;100188.41;5062877;28;20118;-75
2022/02/18 09:39:28;;;;;;;5.65;0.82;;;;;;;11.04;33.41;100201.69;5055682;28;20142;-75
2022/02/18 09:41:54;;;;;;;5.82;1.10;;;;;;;11.02;33.35;100199.06;5065643;28;20101;-74
2022/02/18 09:44:22;;;;;;;29.40;3.83;;;;;;;10.98;33.71;100206.09;5069271;28;20375;-75
2022/02/18 09:46:49;;;;;;;3.13;0.70;;;;;;;11.31;33.60;100214.66;5062895;28;20045;-74
2022/02/18 09:49:15;;;;;;;2.47;0.45;;;;;;;11.29;33.52;100220.81;5062388;28;20491;-74
2022/02/18 09:51:40;;;;;;;4.47;1.40;;;;;;;10.88;33.75;100207.00;5063681;28;20032;-74
2022/02/18 09:54:06;;;;;;;14.73;1.77;;;;;;;10.78;33.43;100198.28;5066023;28;20028;-74
2022/02/18 09:56:33;;;;;;;9.23;1.40;;;;;;;10.85;33.79;100221.91;5066734;28;20044;-74
2022/02/18 09:59:02;;;;;;;57.63;6.43;;;;;;;10.44;35.33;100229.03;5068493;28;20562;-74
2022/02/18 10:01:29;;;;;;;3.25;0.70;;;;;;;10.79;34.96;100230.66;5067549;28;20491;-75
2022/02/18 10:03:54;;;;;;;1.27;0.63;;;;;;;11.03;34.93;100245.44;5068716;28;20078;-74
2022/02/18 10:06:20;;;;;;;13.45;1.58;;;;;;;11.08;35.01;100235.78;5062167;28;20609;-71
2022/02/18 10:08:49;;;;;;;2.75;1.15;;;;;;;11.06;35.22;100229.66;5068592;28;20028;-74
2022/02/18 10:11:15;;;;;;;6.22;1.30;;;;;;;11.04;35.27;100241.06;5059095;28;20040;-72
2022/02/18 10:13:43;;;;;;;8.23;2.33;;;;;;;10.94;36.01;100238.47;5065357;28;20096;-72
2022/02/18 10:16:23;;;;;;;1.05;0.50;;;;;;;11.00;35.96;100232.31;5069995;28;20151;-72
2022/02/18 10:18:53;;;;;;;4.20;1.23;;;;;;;11.16;36.13;100243.63;5060264;28;20102;-72
2022/02/18 10:21:26;;;;;;;3.35;1.20;;;;;;;11.49;35.92;100242.53;5069598;28;20106;-71
2022/02/18 10:24:04;;;;;;;2.65;1.15;;;;;;;11.42;36.23;100235.59;5067096;28;20070;-71
2022/02/18 10:26:38;;;;;;;2.30;0.73;;;;;;;11.38;35.54;100226.88;5049327;28;20045;-71
2022/02/18 10:29:04;;;;;;;7.72;0.85;;;;;;;11.66;35.31;100241.56;5054939;28;20041;-72
2022/02/18 10:32:08;;;;;;;6.95;0.85;;;;;;;11.56;34.93;100235.50;5068777;28;20051;-72
2022/02/18 10:34:58;;;;;;;2.00;0.75;;;;;;;11.77;33.61;100239.72;5067712;28;20048;-73
2022/02/18 10:37:27;;;;;;;3.80;0.85;;;;;;;11.71;33.09;100245.91;5069028;28;20052;-72
2022/02/18 10:40:28;;;;;;;1.83;0.57;;;;;;;11.73;32.86;100240.63;5067144;28;20128;-72
2022/02/18 10:43:05;;;;;;;0.85;0.35;;;;;;;11.70;33.26;100219.63;5064140;28;20040;-72
2022/02/18 10:45:31;;;;;;;0.93;0.47;;;;;;;11.38;33.90;100207.63;5066660;28;20070;-72
2022/02/18 10:48:19;;;;;;;3.78;0.55;;;;;;;11.99;33.02;100222.06;5065720;28;20115;-73
2022/02/18 10:51:05;;;;;;;1.52;0.60;;;;;;;12.31;32.09;100244.56;5066831;28;20020;-73
2022/02/18 10:53:45;;;;;;;1.20;0.55;;;;;;;12.35;32.52;100230.50;5058726;28;20056;-72
2022/02/18 10:56:13;;;;;;;4.57;0.77;;;;;;;12.43;32.40;100233.91;5069139;28;20091;-71
2022/02/18 10:58:46;;;;;;;5.47;0.90;;;;;;;13.05;31.63;100234.94;5066799;28;20118;-72
2022/02/18 11:01:14;;;;;;;2.03;0.60;;;;;;;13.00;30.79;100249.94;5049375;28;20037;-72
2022/02/18 11:03:48;;;;;;;7.47;1.20;;;;;;;11.94;32.58;100219.47;5061846;28;20419;-72
2022/02/18 11:06:14;;;;;;;2.35;0.80;;;;;;;12.86;31.57;100225.53;5049114;28;20036;-72
2022/02/18 11:09:01;;;;;;;6.55;0.90;;;;;;;12.25;33.20;100227.09;5065158;28;20119;-72
2022/02/18 11:11:33;;;;;;;4.47;0.75;;;;;;;12.78;31.85;100223.00;5056745;28;20032;-72
2022/02/18 11:14:02;;;;;;;10.35;1.33;;;;;;;12.52;31.65;100207.47;5064408;28;20039;-72
2022/02/18 11:16:30;;;;;;;2.25;0.70;;;;;;;13.22;30.84;100218.03;5072269;28;20048;-72
2022/02/18 11:18:57;;;;;;;2.30;0.80;;;;;;;13.43;31.21;100219.50;5068612;28;20048;-73
2022/02/18 11:21:23;;;;;;;2.83;0.80;;;;;;;13.69;30.31;100227.00;5065810;28;20533;-72
2022/02/18 11:23:50;;;;;;;2.28;0.70;;;;;;;13.57;29.74;100229.84;5068272;28;20055;-72
2022/02/18 11:26:20;;;;;;;1.67;0.90;;;;;;;13.50;29.70;100221.16;5069352;28;20040;-72
2022/02/18 11:28:46;;;;;;;2.15;0.60;;;;;;;13.49;29.26;100232.63;5061142;28;20037;-73
2022/02/18 11:31:29;;;;;;;4.32;0.85;;;;;;;13.30;29.34;100238.16;5067765;28;20057;-72
2022/02/18 11:34:16;;;;;;;2.13;1.15;;;;;;;13.57;28.85;100235.13;5074145;28;20093;-72
2022/02/18 11:36:52;;;;;;;2.40;0.50;;;;;;;13.89;28.60;100230.22;5067284;28;20067;-71
2022/02/18 11:39:27;;;;;;;2.33;0.77;;;;;;;13.48;28.20;100213.25;5071942;28;20036;-73
2022/02/18 11:42:22;;;;;;;11.27;1.35;;;;;;;13.51;27.56;100226.41;5068399;28;20029;-71
2022/02/18 11:44:49;;;;;;;4.15;0.93;;;;;;;13.54;27.37;100232.53;5065994;28;20115;-72
2022/02/18 11:47:21;;;;;;;4.55;1.27;;;;;;;12.82;28.08;100223.81;5066555;28;20075;-73
2022/02/18 11:49:49;;;;;;;3.38;0.73;;;;;;;12.72;28.96;100225.69;5054991;28;20103;-73